sensor_id;sensor_type;location;lat;lon;timestamp;pressure;altitude;pressure_sealevel;temperature;humidity
64602;BME280;68371;42.630;23.192;2023-04-26T00:00:13;91446.88;;;8.27;91.79
64602;BME280;68371;42.630;23.192;2023-04-26T00:02:40;91452.13;;;8.27;91.74
64602;BME280;68371;42.630;23.192;2023-04-26T00:05:07;91443.72;;;8.17;92.64
64602;BME280;68371;42.630;23.192;2023-04-26T00:07:35;91438.50;;;8.17;93.14
64602;BME280;68371;42.630;23.192;2023-04-26T00:10:03;91434.34;;;8.16;93.19
64602;BME280;68371;42.630;23.192;2023-04-26T00:12:30;91428.28;;;8.12;93.22
64602;BME280;68371;42.630;23.192;2023-04-26T00:14:57;91304.38;;;7.27;92.77
64602;BME280;68371;42.630;23.192;2023-04-26T00:17:23;91412.28;;;7.98;92.59
64602;BME280;68371;42.630;23.192;2023-04-26T00:19:50;91404.56;;;7.86;92.65
64602;BME280;68371;42.630;23.192;2023-04-26T00:22:17;91428.31;;;7.96;92.83
64602;BME280;68371;42.630;23.192;2023-04-26T00:24:45;91417.88;;;7.96;92.98
64602;BME280;68371;42.630;23.192;2023-04-26T00:27:12;91410.28;;;7.91;92.71
64602;BME280;68371;42.630;23.192;2023-04-26T00:29:38;91409.81;;;7.86;92.84
64602;BME280;68371;42.630;23.192;2023-04-26T00:32:05;91408.97;;;7.81;92.50
64602;BME280;68371;42.630;23.192;2023-04-26T00:34:32;91413.63;;;7.72;92.31
64602;BME280;68371;42.630;23.192;2023-04-26T00:36:59;91416.75;;;7.62;92.25
64602;BME280;68371;42.630;23.192;2023-04-26T00:39:26;91408.78;;;7.55;92.17
64602;BME280;68371;42.630;23.192;2023-04-26T00:41:54;91350.34;;;7.12;92.13
64602;BME280;68371;42.630;23.192;2023-04-26T00:44:21;91413.50;;;7.49;92.42
64602;BME280;68371;42.630;23.192;2023-04-26T00:46:48;91415.25;;;7.45;92.98
64602;BME280;68371;42.630;23.192;2023-04-26T00:49:18;91428.09;;;7.50;92.30
64602;BME280;68371;42.630;23.192;2023-04-26T00:51:46;91415.25;;;7.45;92.05
64602;BME280;68371;42.630;23.192;2023-04-26T00:54:13;91413.69;;;7.40;92.61
64602;BME280;68371;42.630;23.192;2023-04-26T00:56:41;91416.44;;;7.32;92.55
64602;BME280;68371;42.630;23.192;2023-04-26T00:59:09;91420.41;;;7.26;91.69
64602;BME280;68371;42.630;23.192;2023-04-26T01:01:36;91366.75;;;6.80;91.95
64602;BME280;68371;42.630;23.192;2023-04-26T01:04:04;91412.31;;;7.15;91.89
64602;BME280;68371;42.630;23.192;2023-04-26T01:06:33;91430.59;;;7.15;92.10
64602;BME280;68371;42.630;23.192;2023-04-26T01:09:02;91428.75;;;7.15;91.95
64602;BME280;68371;42.630;23.192;2023-04-26T01:11:30;91428.75;;;7.15;91.90
64602;BME280;68371;42.630;23.192;2023-04-26T01:13:57;91408.63;;;7.16;91.85
64602;BME280;68371;42.630;23.192;2023-04-26T01:16:26;91402.47;;;7.08;91.78
64602;BME280;68371;42.630;23.192;2023-04-26T01:18:53;91403.91;;;7.06;91.73
64602;BME280;68371;42.630;23.192;2023-04-26T01:21:21;91399.25;;;6.99;92.12
64602;BME280;68371;42.630;23.192;2023-04-26T01:23:51;91404.47;;;6.99;91.02
64602;BME280;68371;42.630;23.192;2023-04-26T01:26:18;91409.69;;;6.99;91.13
64602;BME280;68371;42.630;23.192;2023-04-26T01:28:45;91417.22;;;7.00;91.67
64602;BME280;68371;42.630;23.192;2023-04-26T01:31:13;91422.09;;;7.02;91.78
64602;BME280;68371;42.630;23.192;2023-04-26T01:33:40;91422.00;;;6.98;92.29
64602;BME280;68371;42.630;23.192;2023-04-26T01:36:07;91410.03;;;6.81;93.03
64602;BME280;68371;42.630;23.192;2023-04-26T01:38:35;91434.13;;;6.91;93.75
64602;BME280;68371;42.630;23.192;2023-04-26T01:41:03;91427.59;;;6.69;94.36
64602;BME280;68371;42.630;23.192;2023-04-26T01:43:30;91426.25;;;6.59;95.52
64602;BME280;68371;42.630;23.192;2023-04-26T01:45:57;91419.03;;;6.68;95.42
64602;BME280;68371;42.630;23.192;2023-04-26T01:48:23;91423.22;;;6.73;95.57
64602;BME280;68371;42.630;23.192;2023-04-26T01:50:50;91422.91;;;6.74;95.62
64602;BME280;68371;42.630;23.192;2023-04-26T01:53:17;91414.97;;;6.71;95.30
64602;BME280;68371;42.630;23.192;2023-04-26T01:55:43;91408.25;;;6.70;95.34
64602;BME280;68371;42.630;23.192;2023-04-26T01:58:12;91412.56;;;6.78;94.96
64602;BME280;68371;42.630;23.192;2023-04-26T02:00:38;91414.84;;;6.79;95.25
64602;BME280;68371;42.630;23.192;2023-04-26T02:03:05;91398.97;;;6.72;95.31
64602;BME280;68371;42.630;23.192;2023-04-26T02:05:32;91403.03;;;6.70;95.38
64602;BME280;68371;42.630;23.192;2023-04-26T02:07:58;91399.25;;;6.67;95.67
64602;BME280;68371;42.630;23.192;2023-04-26T02:10:25;91404.22;;;6.72;95.70
64602;BME280;68371;42.630;23.192;2023-04-26T02:12:52;91395.63;;;6.72;95.88
64602;BME280;68371;42.630;23.192;2023-04-26T02:15:20;91394.03;;;6.67;96.10
64602;BME280;68371;42.630;23.192;2023-04-26T02:17:47;91396.47;;;6.76;96.04
64602;BME280;68371;42.630;23.192;2023-04-26T02:20:14;91399.50;;;6.78;96.45
64602;BME280;68371;42.630;23.192;2023-04-26T02:22:41;91394.38;;;6.81;96.67
64602;BME280;68371;42.630;23.192;2023-04-26T02:25:08;91402.28;;;6.85;97.13
64602;BME280;68371;42.630;23.192;2023-04-26T02:27:35;91388.38;;;6.81;97.46
64602;BME280;68371;42.630;23.192;2023-04-26T02:30:03;91393.19;;;6.95;97.33
64602;BME280;68371;42.630;23.192;2023-04-26T02:32:31;91386.38;;;6.90;97.82
64602;BME280;68371;42.630;23.192;2023-04-26T02:34:58;91400.59;;;6.93;97.62
64602;BME280;68371;42.630;23.192;2023-04-26T02:37:25;91398.00;;;6.93;97.45
64602;BME280;68371;42.630;23.192;2023-04-26T02:39:52;91358.13;;;6.64;98.59
64602;BME280;68371;42.630;23.192;2023-04-26T02:42:19;91383.00;;;6.90;98.31
64602;BME280;68371;42.630;23.192;2023-04-26T02:44:46;91382.00;;;6.94;98.26
64602;BME280;68371;42.630;23.192;2023-04-26T02:47:12;91364.81;;;6.93;98.24
64602;BME280;68371;42.630;23.192;2023-04-26T02:49:40;91366.00;;;6.96;98.34
64602;BME280;68371;42.630;23.192;2023-04-26T02:52:07;91360.78;;;6.96;97.81
64602;BME280;68371;42.630;23.192;2023-04-26T02:54:34;91360.00;;;6.95;97.69
64602;BME280;68371;42.630;23.192;2023-04-26T02:57:00;91360.09;;;6.99;97.73
64602;BME280;68371;42.630;23.192;2023-04-26T02:59:27;91342.41;;;6.92;98.45
64602;BME280;68371;42.630;23.192;2023-04-26T03:01:54;91353.94;;;7.07;98.58
64602;BME280;68371;42.630;23.192;2023-04-26T03:04:21;91335.00;;;6.94;98.67
64602;BME280;68371;42.630;23.192;2023-04-26T03:06:49;91347.31;;;7.10;99.15
64602;BME280;68371;42.630;23.192;2023-04-26T03:09:15;91335.50;;;7.16;98.54
64602;BME280;68371;42.630;23.192;2023-04-26T03:11:42;91338.78;;;7.13;98.59
64602;BME280;68371;42.630;23.192;2023-04-26T03:14:09;91339.78;;;7.08;98.82
64602;BME280;68371;42.630;23.192;2023-04-26T03:16:40;91345.84;;;7.12;98.73
64602;BME280;68371;42.630;23.192;2023-04-26T03:19:07;91344.41;;;7.15;98.49
64602;BME280;68371;42.630;23.192;2023-04-26T03:21:34;91345.25;;;7.19;98.42
64602;BME280;68371;42.630;23.192;2023-04-26T03:24:03;91334.91;;;7.07;98.16
64602;BME280;68371;42.630;23.192;2023-04-26T03:26:29;91353.44;;;7.17;97.76
64602;BME280;68371;42.630;23.192;2023-04-26T03:28:56;91355.63;;;7.15;98.13
64602;BME280;68371;42.630;23.192;2023-04-26T03:31:23;91351.22;;;7.19;98.39
64602;BME280;68371;42.630;23.192;2023-04-26T03:33:50;91354.94;;;7.18;98.42
64602;BME280;68371;42.630;23.192;2023-04-26T03:36:17;91356.53;;;7.23;97.42
64602;BME280;68371;42.630;23.192;2023-04-26T03:38:44;91363.81;;;6.98;98.28
64602;BME280;68371;42.630;23.192;2023-04-26T03:41:12;91360.41;;;6.97;98.94
64602;BME280;68371;42.630;23.192;2023-04-26T03:43:39;91364.22;;;7.00;98.91
64602;BME280;68371;42.630;23.192;2023-04-26T03:46:06;91328.34;;;6.65;98.92
64602;BME280;68371;42.630;23.192;2023-04-26T03:48:32;91372.06;;;7.00;98.51
64602;BME280;68371;42.630;23.192;2023-04-26T03:51:00;91371.75;;;7.01;97.59
64602;BME280;68371;42.630;23.192;2023-04-26T03:53:27;91379.56;;;7.01;99.31
64602;BME280;68371;42.630;23.192;2023-04-26T03:55:53;91372.91;;;7.04;98.92
64602;BME280;68371;42.630;23.192;2023-04-26T03:58:22;91389.16;;;7.13;98.51
64602;BME280;68371;42.630;23.192;2023-04-26T04:00:48;91382.75;;;7.11;98.82
64602;BME280;68371;42.630;23.192;2023-04-26T04:03:15;91385.53;;;7.18;99.21
64602;BME280;68371;42.630;23.192;2023-04-26T04:05:42;91380.47;;;7.25;99.35
64602;BME280;68371;42.630;23.192;2023-04-26T04:08:09;91381.63;;;7.28;99.37
64602;BME280;68371;42.630;23.192;2023-04-26T04:10:35;91380.97;;;7.31;99.20
64602;BME280;68371;42.630;23.192;2023-04-26T04:13:02;91386.53;;;7.29;98.82
64602;BME280;68371;42.630;23.192;2023-04-26T04:15:30;91376.59;;;7.19;99.49
64602;BME280;68371;42.630;23.192;2023-04-26T04:17:58;91394.03;;;7.31;99.25
64602;BME280;68371;42.630;23.192;2023-04-26T04:20:24;91373.91;;;7.15;98.60
64602;BME280;68371;42.630;23.192;2023-04-26T04:22:51;91391.94;;;7.36;99.39
64602;BME280;68371;42.630;23.192;2023-04-26T04:25:18;91381.63;;;7.28;99.48
64602;BME280;68371;42.630;23.192;2023-04-26T04:27:47;91404.47;;;7.47;99.41
64602;BME280;68371;42.630;23.192;2023-04-26T04:30:14;91398.31;;;7.55;98.77
64602;BME280;68371;42.630;23.192;2023-04-26T04:32:42;91385.50;;;7.50;99.23
64602;BME280;68371;42.630;23.192;2023-04-26T04:35:11;91401.50;;;7.64;99.44
64602;BME280;68371;42.630;23.192;2023-04-26T04:37:38;91354.53;;;7.32;99.02
64602;BME280;68371;42.630;23.192;2023-04-26T04:40:05;91403.53;;;7.71;99.15
64602;BME280;68371;42.630;23.192;2023-04-26T04:42:35;91401.38;;;7.76;99.17
64602;BME280;68371;42.630;23.192;2023-04-26T04:45:02;91412.25;;;7.78;99.38
64602;BME280;68371;42.630;23.192;2023-04-26T04:47:29;91405.53;;;7.77;99.38
64602;BME280;68371;42.630;23.192;2023-04-26T04:49:57;91402.06;;;7.73;100.00
64602;BME280;68371;42.630;23.192;2023-04-26T04:52:25;91370.66;;;7.54;100.00
64602;BME280;68371;42.630;23.192;2023-04-26T04:54:51;91406.50;;;7.89;99.72
64602;BME280;68371;42.630;23.192;2023-04-26T04:57:18;91408.50;;;7.95;100.00
64602;BME280;68371;42.630;23.192;2023-04-26T04:59:45;91417.44;;;7.94;99.43
64602;BME280;68371;42.630;23.192;2023-04-26T05:02:11;91415.66;;;7.98;99.68
64602;BME280;68371;42.630;23.192;2023-04-26T05:04:38;91412.38;;;8.01;99.32
64602;BME280;68371;42.630;23.192;2023-04-26T05:07:06;91410.38;;;7.95;98.33
64602;BME280;68371;42.630;23.192;2023-04-26T05:09:33;91414.50;;;7.96;99.36
64602;BME280;68371;42.630;23.192;2023-04-26T05:12:01;91412.78;;;8.03;100.00
64602;BME280;68371;42.630;23.192;2023-04-26T05:14:28;91415.28;;;8.16;100.00
64602;BME280;68371;42.630;23.192;2023-04-26T05:16:56;91412.03;;;8.22;99.80
64602;BME280;68371;42.630;23.192;2023-04-26T05:19:23;91405.75;;;8.27;99.32
64602;BME280;68371;42.630;23.192;2023-04-26T05:21:49;91408.28;;;8.39;99.94
64602;BME280;68371;42.630;23.192;2023-04-26T05:24:18;91409.25;;;8.51;100.00
64602;BME280;68371;42.630;23.192;2023-04-26T05:26:44;91416.75;;;8.52;100.00
64602;BME280;68371;42.630;23.192;2023-04-26T05:29:12;91415.44;;;8.62;100.00
64602;BME280;68371;42.630;23.192;2023-04-26T05:31:38;91419.91;;;8.61;99.44
64602;BME280;68371;42.630;23.192;2023-04-26T05:34:05;91420.81;;;8.69;100.00
64602;BME280;68371;42.630;23.192;2023-04-26T05:36:32;91405.03;;;8.66;99.40
64602;BME280;68371;42.630;23.192;2023-04-26T05:38:58;91423.56;;;8.76;96.61
64602;BME280;68371;42.630;23.192;2023-04-26T05:41:26;91429.31;;;8.86;96.63
64602;BME280;68371;42.630;23.192;2023-04-26T05:43:53;91428.06;;;8.99;97.38
64602;BME280;68371;42.630;23.192;2023-04-26T05:46:20;91436.69;;;8.99;98.05
64602;BME280;68371;42.630;23.192;2023-04-26T05:48:46;91423.88;;;8.94;98.02
64602;BME280;68371;42.630;23.192;2023-04-26T05:51:13;91429.00;;;9.10;97.47
64602;BME280;68371;42.630;23.192;2023-04-26T05:53:40;91428.44;;;9.20;97.14
64602;BME280;68371;42.630;23.192;2023-04-26T05:56:07;91432.97;;;9.23;96.86
64602;BME280;68371;42.630;23.192;2023-04-26T05:58:35;91434.19;;;9.30;97.25
64602;BME280;68371;42.630;23.192;2023-04-26T06:01:01;91435.06;;;9.37;98.10
64602;BME280;68371;42.630;23.192;2023-04-26T06:03:28;91435.53;;;9.43;98.71
64602;BME280;68371;42.630;23.192;2023-04-26T06:05:55;91440.81;;;9.47;98.63
64602;BME280;68371;42.630;23.192;2023-04-26T06:08:21;91428.78;;;9.42;97.22
64602;BME280;68371;42.630;23.192;2023-04-26T06:10:48;91441.19;;;9.45;96.32
64602;BME280;68371;42.630;23.192;2023-04-26T06:13:15;91439.66;;;9.44;94.69
64602;BME280;68371;42.630;23.192;2023-04-26T06:15:43;91445.38;;;9.50;90.17
64602;BME280;68371;42.630;23.192;2023-04-26T06:18:10;91440.75;;;9.66;90.64
64602;BME280;68371;42.630;23.192;2023-04-26T06:20:36;91442.03;;;9.76;86.95
64602;BME280;68371;42.630;23.192;2023-04-26T06:23:04;91448.53;;;9.86;83.68
64602;BME280;68371;42.630;23.192;2023-04-26T06:25:31;91438.47;;;9.65;81.20
64602;BME280;68371;42.630;23.192;2023-04-26T06:27:58;91447.63;;;9.74;84.32
64602;BME280;68371;42.630;23.192;2023-04-26T06:30:25;91458.44;;;9.73;87.73
64602;BME280;68371;42.630;23.192;2023-04-26T06:32:53;91456.34;;;9.82;86.49
64602;BME280;68371;42.630;23.192;2023-04-26T06:35:19;91453.06;;;9.62;80.85
64602;BME280;68371;42.630;23.192;2023-04-26T06:37:47;91448.22;;;9.64;81.47
64602;BME280;68371;42.630;23.192;2023-04-26T06:40:14;91444.19;;;9.70;83.75
64602;BME280;68371;42.630;23.192;2023-04-26T06:42:41;91455.19;;;9.79;83.44
64602;BME280;68371;42.630;23.192;2023-04-26T06:45:09;91440.41;;;9.68;83.48
64602;BME280;68371;42.630;23.192;2023-04-26T06:47:36;91449.69;;;9.88;82.00
64602;BME280;68371;42.630;23.192;2023-04-26T06:50:07;91461.66;;;10.12;81.62
64602;BME280;68371;42.630;23.192;2023-04-26T06:52:33;91467.81;;;9.97;77.82
64602;BME280;68371;42.630;23.192;2023-04-26T06:55:01;91437.19;;;9.55;77.78
64602;BME280;68371;42.630;23.192;2023-04-26T06:57:28;91468.34;;;9.83;77.24
64602;BME280;68371;42.630;23.192;2023-04-26T06:59:55;91471.09;;;9.90;75.77
64602;BME280;68371;42.630;23.192;2023-04-26T07:02:22;91476.25;;;9.60;73.78
64602;BME280;68371;42.630;23.192;2023-04-26T07:04:49;91470.94;;;9.56;75.79
64602;BME280;68371;42.630;23.192;2023-04-26T07:07:17;91481.25;;;9.46;74.52
64602;BME280;68371;42.630;23.192;2023-04-26T07:09:43;91486.56;;;9.49;74.52
64602;BME280;68371;42.630;23.192;2023-04-26T07:12:10;91491.00;;;9.45;74.57
64602;BME280;68371;42.630;23.192;2023-04-26T07:14:37;91495.44;;;9.41;73.95
64602;BME280;68371;42.630;23.192;2023-04-26T07:17:05;91480.28;;;9.31;72.71
64602;BME280;68371;42.630;23.192;2023-04-26T07:19:33;91493.63;;;9.45;70.26
64602;BME280;68371;42.630;23.192;2023-04-26T07:21:59;91488.13;;;9.54;75.06
64602;BME280;68371;42.630;23.192;2023-04-26T07:24:28;91488.19;;;9.57;72.46
64602;BME280;68371;42.630;23.192;2023-04-26T07:26:55;91490.16;;;9.64;72.43
64602;BME280;68371;42.630;23.192;2023-04-26T07:29:22;91486.63;;;9.76;73.43
64602;BME280;68371;42.630;23.192;2023-04-26T07:31:48;91486.00;;;9.86;71.62
64602;BME280;68371;42.630;23.192;2023-04-26T07:34:15;91494.16;;;9.81;69.43
64602;BME280;68371;42.630;23.192;2023-04-26T07:36:42;91497.44;;;9.74;68.74
64602;BME280;68371;42.630;23.192;2023-04-26T07:39:09;91504.22;;;9.75;68.74
64602;BME280;68371;42.630;23.192;2023-04-26T07:41:37;91503.16;;;9.80;69.11
64602;BME280;68371;42.630;23.192;2023-04-26T07:44:04;91500.03;;;9.97;69.03
64602;BME280;68371;42.630;23.192;2023-04-26T07:46:32;91505.50;;;10.12;68.47
64602;BME280;68371;42.630;23.192;2023-04-26T07:48:58;91506.72;;;10.18;67.94
64602;BME280;68371;42.630;23.192;2023-04-26T07:51:25;91501.91;;;10.23;68.83
64602;BME280;68371;42.630;23.192;2023-04-26T07:53:52;91503.00;;;10.46;72.74
64602;BME280;68371;42.630;23.192;2023-04-26T07:56:20;91501.84;;;10.43;67.28
64602;BME280;68371;42.630;23.192;2023-04-26T07:58:49;91433.59;;;9.90;67.32
64602;BME280;68371;42.630;23.192;2023-04-26T08:01:16;91496.19;;;10.41;68.60
64602;BME280;68371;42.630;23.192;2023-04-26T08:03:43;91502.19;;;10.41;66.79
64602;BME280;68371;42.630;23.192;2023-04-26T08:06:10;91501.22;;;10.53;67.63
64602;BME280;68371;42.630;23.192;2023-04-26T08:08:37;91500.66;;;10.67;70.16
64602;BME280;68371;42.630;23.192;2023-04-26T08:11:09;91508.56;;;10.71;67.10
64602;BME280;68371;42.630;23.192;2023-04-26T08:13:36;91503.53;;;10.58;65.72
64602;BME280;68371;42.630;23.192;2023-04-26T08:16:04;91470.81;;;10.26;68.44
64602;BME280;68371;42.630;23.192;2023-04-26T08:18:31;91510.00;;;10.65;66.30
64602;BME280;68371;42.630;23.192;2023-04-26T08:20:58;91501.03;;;10.69;67.33
64602;BME280;68371;42.630;23.192;2023-04-26T08:23:24;91495.56;;;10.81;67.90
64602;BME280;68371;42.630;23.192;2023-04-26T08:25:52;91498.97;;;10.86;68.38
64602;BME280;68371;42.630;23.192;2023-04-26T08:28:19;91496.84;;;10.95;67.81
64602;BME280;68371;42.630;23.192;2023-04-26T08:30:46;91488.75;;;11.11;69.42
64602;BME280;68371;42.630;23.192;2023-04-26T08:33:14;91500.13;;;10.88;65.21
64602;BME280;68371;42.630;23.192;2023-04-26T08:35:43;91508.75;;;10.89;66.48
64602;BME280;68371;42.630;23.192;2023-04-26T08:38:10;91490.31;;;10.81;65.10
64602;BME280;68371;42.630;23.192;2023-04-26T08:40:37;91487.91;;;10.69;65.30
64602;BME280;68371;42.630;23.192;2023-04-26T08:43:04;91483.91;;;10.79;65.88
64602;BME280;68371;42.630;23.192;2023-04-26T08:45:33;91502.69;;;10.81;64.48
64602;BME280;68371;42.630;23.192;2023-04-26T08:48:02;91495.31;;;10.94;64.28
64602;BME280;68371;42.630;23.192;2023-04-26T08:50:32;91502.97;;;11.06;62.56
64602;BME280;68371;42.630;23.192;2023-04-26T08:52:59;91499.38;;;11.21;64.47
64602;BME280;68371;42.630;23.192;2023-04-26T08:55:26;91501.34;;;11.32;62.01
64602;BME280;68371;42.630;23.192;2023-04-26T08:57:54;91493.28;;;11.14;64.06
64602;BME280;68371;42.630;23.192;2023-04-26T09:00:21;91495.66;;;10.92;62.14
64602;BME280;68371;42.630;23.192;2023-04-26T09:02:49;91428.47;;;10.27;63.52
64602;BME280;68371;42.630;23.192;2023-04-26T09:05:16;91496.88;;;10.98;63.76
64602;BME280;68371;42.630;23.192;2023-04-26T09:07:50;91491.44;;;11.18;63.62
64602;BME280;68371;42.630;23.192;2023-04-26T09:10:18;91485.56;;;10.94;62.49
64602;BME280;68371;42.630;23.192;2023-04-26T09:12:46;91493.00;;;11.22;63.83
64602;BME280;68371;42.630;23.192;2023-04-26T09:15:16;91469.59;;;11.10;63.19
64602;BME280;68371;42.630;23.192;2023-04-26T09:17:43;91502.94;;;11.40;62.67
64602;BME280;68371;42.630;23.192;2023-04-26T09:20:19;91502.69;;;11.52;62.48
64602;BME280;68371;42.630;23.192;2023-04-26T09:22:47;91488.31;;;11.42;61.21
64602;BME280;68371;42.630;23.192;2023-04-26T09:25:17;91505.13;;;11.34;65.04
64602;BME280;68371;42.630;23.192;2023-04-26T09:27:44;91487.03;;;11.29;63.44
64602;BME280;68371;42.630;23.192;2023-04-26T09:30:13;91507.50;;;11.47;65.20
64602;BME280;68371;42.630;23.192;2023-04-26T09:32:50;91507.19;;;11.52;61.60
64602;BME280;68371;42.630;23.192;2023-04-26T09:35:25;91486.41;;;11.39;62.56
64602;BME280;68371;42.630;23.192;2023-04-26T09:37:54;91500.56;;;11.28;61.70
64602;BME280;68371;42.630;23.192;2023-04-26T09:40:25;91490.66;;;11.55;61.67
64602;BME280;68371;42.630;23.192;2023-04-26T09:42:56;91487.50;;;11.79;67.46
64602;BME280;68371;42.630;23.192;2023-04-26T09:45:23;91487.91;;;11.85;61.82
64602;BME280;68371;42.630;23.192;2023-04-26T09:47:50;91489.56;;;11.59;59.36
64602;BME280;68371;42.630;23.192;2023-04-26T09:50:27;91488.56;;;11.71;58.86
64602;BME280;68371;42.630;23.192;2023-04-26T09:52:54;91485.63;;;11.83;59.37
64602;BME280;68371;42.630;23.192;2023-04-26T09:55:29;91478.53;;;11.88;60.43
64602;BME280;68371;42.630;23.192;2023-04-26T09:57:56;91477.84;;;11.91;59.45
64602;BME280;68371;42.630;23.192;2023-04-26T10:00:25;91478.28;;;12.03;60.22
64602;BME280;68371;42.630;23.192;2023-04-26T10:02:53;91476.81;;;12.06;60.76
64602;BME280;68371;42.630;23.192;2023-04-26T10:05:20;91472.38;;;12.17;59.27
64602;BME280;68371;42.630;23.192;2023-04-26T10:07:49;91481.19;;;12.43;55.79
64602;BME280;68371;42.630;23.192;2023-04-26T10:10:17;91459.66;;;12.27;55.83
64602;BME280;68371;42.630;23.192;2023-04-26T10:12:46;91484.19;;;12.41;55.21
64602;BME280;68371;42.630;23.192;2023-04-26T10:15:14;91478.56;;;12.47;57.20
64602;BME280;68371;42.630;23.192;2023-04-26T10:17:41;91486.84;;;12.49;58.64
64602;BME280;68371;42.630;23.192;2023-04-26T10:20:11;91478.16;;;12.41;59.13
64602;BME280;68371;42.630;23.192;2023-04-26T10:22:42;91490.94;;;12.42;56.59
64602;BME280;68371;42.630;23.192;2023-04-26T10:25:11;91474.66;;;12.22;56.55
64602;BME280;68371;42.630;23.192;2023-04-26T10:27:50;91483.25;;;12.09;56.95
64602;BME280;68371;42.630;23.192;2023-04-26T10:30:20;91449.34;;;12.03;58.14
64602;BME280;68371;42.630;23.192;2023-04-26T10:33:20;91485.72;;;12.46;55.61
64602;BME280;68371;42.630;23.192;2023-04-26T10:36:08;91487.94;;;12.40;56.81
64602;BME280;68371;42.630;23.192;2023-04-26T10:38:39;91477.09;;;12.56;56.67
64602;BME280;68371;42.630;23.192;2023-04-26T10:44:39;91491.03;;;12.60;54.47
64602;BME280;68371;42.630;23.192;2023-04-26T10:47:20;91480.09;;;12.55;53.77
64602;BME280;68371;42.630;23.192;2023-04-26T10:49:47;91476.75;;;12.58;56.00
64602;BME280;68371;42.630;23.192;2023-04-26T10:52:15;91486.97;;;12.70;56.03
64602;BME280;68371;42.630;23.192;2023-04-26T10:54:52;91489.59;;;12.70;55.28
64602;BME280;68371;42.630;23.192;2023-04-26T10:57:20;91483.88;;;12.54;53.11
64602;BME280;68371;42.630;23.192;2023-04-26T11:00:22;91480.84;;;12.52;54.30
64602;BME280;68371;42.630;23.192;2023-04-26T11:02:58;91483.78;;;12.36;53.32
64602;BME280;68371;42.630;23.192;2023-04-26T11:05:35;91482.66;;;12.40;52.97
64602;BME280;68371;42.630;23.192;2023-04-26T11:08:04;91482.66;;;12.37;53.23
64602;BME280;68371;42.630;23.192;2023-04-26T11:10:30;91480.06;;;12.48;53.87
64602;BME280;68371;42.630;23.192;2023-04-26T11:13:01;91492.88;;;12.53;53.80
64602;BME280;68371;42.630;23.192;2023-04-26T11:15:30;91470.72;;;12.61;51.74
64602;BME280;68371;42.630;23.192;2023-04-26T11:17:57;91473.44;;;12.79;53.21
64602;BME280;68371;42.630;23.192;2023-04-26T11:20:28;91459.84;;;12.70;50.71
64602;BME280;68371;42.630;23.192;2023-04-26T11:22:55;91475.63;;;12.62;50.59
64602;BME280;68371;42.630;23.192;2023-04-26T11:25:23;91475.34;;;12.82;49.59
64602;BME280;68371;42.630;23.192;2023-04-26T11:27:50;91476.91;;;13.01;50.19
64602;BME280;68371;42.630;23.192;2023-04-26T11:30:17;91483.38;;;13.14;50.78
64602;BME280;68371;42.630;23.192;2023-04-26T11:32:46;91479.19;;;13.02;47.84
64602;BME280;68371;42.630;23.192;2023-04-26T11:35:14;91480.31;;;13.09;49.26
64602;BME280;68371;42.630;23.192;2023-04-26T11:37:41;91478.84;;;13.15;49.25
64602;BME280;68371;42.630;23.192;2023-04-26T11:40:11;91480.38;;;13.27;48.86
64602;BME280;68371;42.630;23.192;2023-04-26T11:42:37;91486.38;;;13.23;50.92
64602;BME280;68371;42.630;23.192;2023-04-26T11:45:05;91478.50;;;13.20;48.09
64602;BME280;68371;42.630;23.192;2023-04-26T11:47:33;91487.84;;;13.07;49.89
64602;BME280;68371;42.630;23.192;2023-04-26T11:50:02;91484.16;;;13.22;49.46
64602;BME280;68371;42.630;23.192;2023-04-26T11:52:29;91455.13;;;13.18;50.33
64602;BME280;68371;42.630;23.192;2023-04-26T11:55:03;91481.13;;;13.23;48.71
64602;BME280;68371;42.630;23.192;2023-04-26T11:57:31;91479.59;;;13.19;49.72
64602;BME280;68371;42.630;23.192;2023-04-26T12:00:08;91477.31;;;13.07;48.95
64602;BME280;68371;42.630;23.192;2023-04-26T12:02:36;91478.41;;;12.98;48.76
64602;BME280;68371;42.630;23.192;2023-04-26T12:05:05;91479.88;;;12.81;51.02
64602;BME280;68371;42.630;23.192;2023-04-26T12:07:36;91452.28;;;12.61;51.71
64602;BME280;68371;42.630;23.192;2023-04-26T12:10:16;91472.38;;;12.94;53.01
64602;BME280;68371;42.630;23.192;2023-04-26T12:12:46;91469.75;;;13.05;50.94
64602;BME280;68371;42.630;23.192;2023-04-26T12:15:14;91458.03;;;12.88;49.61
64602;BME280;68371;42.630;23.192;2023-04-26T12:17:50;91426.78;;;12.79;49.99
64602;BME280;68371;42.630;23.192;2023-04-26T12:20:25;91468.34;;;13.29;51.26
64602;BME280;68371;42.630;23.192;2023-04-26T12:22:59;91464.59;;;13.34;51.96
64602;BME280;68371;42.630;23.192;2023-04-26T12:25:27;91471.78;;;13.40;47.93
64602;BME280;68371;42.630;23.192;2023-04-26T12:27:55;91465.28;;;13.23;46.72
64602;BME280;68371;42.630;23.192;2023-04-26T12:30:22;91470.19;;;13.18;46.93
64602;BME280;68371;42.630;23.192;2023-04-26T12:32:49;91471.31;;;13.17;48.97
64602;BME280;68371;42.630;23.192;2023-04-26T12:35:16;91467.50;;;13.07;49.20
64602;BME280;68371;42.630;23.192;2023-04-26T12:37:44;91466.75;;;13.03;48.33
64602;BME280;68371;42.630;23.192;2023-04-26T12:40:12;91479.56;;;13.05;50.07
64602;BME280;68371;42.630;23.192;2023-04-26T12:42:39;91459.56;;;12.86;51.94
64602;BME280;68371;42.630;23.192;2023-04-26T12:45:06;91472.44;;;13.12;49.39
64602;BME280;68371;42.630;23.192;2023-04-26T12:47:33;91467.16;;;13.12;49.44
64602;BME280;68371;42.630;23.192;2023-04-26T12:50:00;91457.00;;;13.21;49.60
64602;BME280;68371;42.630;23.192;2023-04-26T12:52:27;91459.66;;;13.29;48.78
64602;BME280;68371;42.630;23.192;2023-04-26T12:54:56;91455.53;;;13.31;47.97
64602;BME280;68371;42.630;23.192;2023-04-26T12:57:24;91462.34;;;13.50;47.96
64602;BME280;68371;42.630;23.192;2023-04-26T12:59:51;91465.38;;;13.59;48.96
64602;BME280;68371;42.630;23.192;2023-04-26T13:02:18;91457.47;;;13.74;45.71